Weather at Volos Army Airport [CLOSED]

Public forecast

Using degrees Celsius for public forecast. Weather courtesy of forecast.io.

Closest aviation weather report (METAR) to Volos Army Airport

Closest report is Nea Anchialos National Airport, 11.4 nm (21.1 km) SSW.

2024/02/25 04:50 (retrieved 22 minutes ago)

LGBL 250450Z 00000KT 9999 FEW035 BKN080 11/09 Q1017 RMK BKN180 BLU

Closest aviation forecast (TAF) to Volos Army Airport

Forecast is more than 12 hours old.

Closest forecast is Kukës International Airport, 195.7 nm (362.5 km) NW.

2024/02/24 12:00 Ammendment (retrieved 17 hours ago)

TAF AMD LAKU 241500Z 2412/2512 CNL